Time;durP1;ratioP1;P1;durP2;ratioP2;P2;SDS_P1;SDS_P2;PMS_P1;PMS_P2;Temp;Humidity;BMP_temperature;BMP_pressure;BME280_temperature;BME280_humidity;BME280_pressure;Samples;Min_cycle;Max_cycle;Signal;HPM_P1;HPM_P2
2021/06/20 00:00:21;;;;;;;6.45;3.80;;;20.90;99.90;;;19.78;92.34;100310.22;3499677;40;102141;-41
2021/06/20 00:02:51;;;;;;;6.43;3.80;;;20.90;99.90;;;19.84;92.55;100317.38;3499938;40;103328;-42
2021/06/20 00:05:27;;;;;;;5.85;4.00;;;20.90;99.90;;;19.71;92.00;100312.50;3499396;40;102542;-41
2021/06/20 00:08:01;;;;;;;7.03;3.88;;;20.90;99.90;;;19.81;92.74;100334.56;3499550;40;102421;-41
2021/06/20 00:10:34;;;;;;;6.65;3.97;;;20.90;99.90;;;19.80;92.85;100343.97;3500381;40;103222;-41
2021/06/20 00:13:02;;;;;;;6.88;4.00;;;20.90;99.90;;;19.76;92.92;100342.91;3499515;40;102339;-41
2021/06/20 00:15:32;;;;;;;6.47;3.85;;;20.80;99.90;;;19.77;93.61;100339.84;3499820;40;102709;-41
2021/06/20 00:18:04;;;;;;;6.55;3.45;;;20.80;99.90;;;19.77;93.83;100333.47;3499159;40;102531;-41
2021/06/20 00:20:36;;;;;;;6.65;3.63;;;20.90;99.90;;;19.77;94.12;100319.63;3499594;40;102211;-43
2021/06/20 00:23:04;;;;;;;5.60;3.30;;;20.90;99.90;;;19.76;93.83;100309.69;3499989;40;102322;-42
2021/06/20 00:25:32;;;;;;;5.05;3.15;;;20.90;99.90;;;19.79;93.35;100286.97;3499312;40;102173;-45
2021/06/20 00:28:02;;;;;;;6.38;3.00;;;20.90;99.90;;;19.72;93.20;100286.47;3499444;40;103308;-41
2021/06/20 00:30:34;;;;;;;4.32;2.67;;;20.80;99.90;;;19.74;93.50;100284.25;3499798;40;103966;-41
2021/06/20 00:33:01;;;;;;;4.50;2.90;;;20.80;99.90;;;19.72;93.19;100276.22;3499353;40;102384;-41
2021/06/20 00:35:29;;;;;;;6.97;2.90;;;20.90;99.90;;;19.72;93.05;100275.41;3642722;22;103281;-40
2021/06/20 00:37:56;;;;;;;4.80;2.47;;;20.80;99.90;;;19.72;93.27;100280.94;3518671;40;102360;-44
2021/06/20 00:40:24;;;;;;;4.70;2.22;;;20.90;99.90;;;19.72;93.07;100276.22;3518760;40;102317;-42
2021/06/20 00:42:54;;;;;;;6.28;2.67;;;20.80;99.90;;;19.71;92.57;100269.03;3518558;40;102345;-40
2021/06/20 00:45:22;;;;;;;5.00;2.15;;;20.80;99.90;;;19.69;91.51;100266.56;3518588;40;103582;-41
2021/06/20 00:47:54;;;;;;;3.25;1.83;;;20.80;99.90;;;19.65;91.18;100248.91;3519001;39;103423;-40
2021/06/20 00:50:27;;;;;;;3.80;1.80;;;20.80;99.90;;;19.64;91.44;100238.94;3519053;40;103157;-40
2021/06/20 00:53:01;;;;;;;4.70;2.00;;;20.80;99.90;;;19.60;90.71;100262.75;3518158;40;102237;-42
2021/06/20 00:55:37;;;;;;;5.82;1.83;;;20.70;99.90;;;19.62;91.39;100265.22;3518541;40;103324;-40
2021/06/20 00:58:07;;;;;;;5.07;1.70;;;20.70;99.90;;;19.56;91.53;100261.66;3519557;40;102395;-42
2021/06/20 01:00:37;;;;;;;5.72;1.75;;;20.70;99.90;;;19.50;91.68;100273.88;3518861;40;104376;-40
2021/06/20 01:03:06;;;;;;;4.43;1.42;;;20.60;99.90;;;19.49;91.89;100269.47;3518632;40;102244;-41
2021/06/20 01:05:34;;;;;;;4.65;1.83;;;20.60;99.90;;;19.49;91.65;100277.75;3519538;39;102321;-41
2021/06/20 01:08:01;;;;;;;3.20;1.52;;;20.60;99.90;;;19.44;91.72;100269.50;3520040;39;102094;-42
2021/06/20 01:10:36;;;;;;;4.68;1.38;;;20.60;99.90;;;19.38;91.96;100261.25;3520326;39;103547;-42
2021/06/20 01:13:08;;;;;;;3.28;1.10;;;20.50;99.90;;;19.35;91.52;100250.72;3520678;39;102165;-39
2021/06/20 01:15:37;;;;;;;3.67;1.30;;;20.50;99.90;;;19.32;91.33;100248.53;3520154;40;104151;-41
2021/06/20 01:18:06;;;;;;;3.70;1.42;;;20.50;99.90;;;19.29;91.06;100253.81;3519964;40;102441;-42
2021/06/20 01:20:33;;;;;;;3.33;1.20;;;20.40;99.90;;;19.26;90.66;100264.34;3520601;40;102822;-41
2021/06/20 01:23:01;;;;;;;3.72;1.20;;;20.40;99.90;;;19.14;91.08;100269.38;3520124;40;102091;-41
2021/06/20 01:25:30;;;;;;;1.98;1.10;;;20.30;99.90;;;19.13;90.90;100276.00;3520046;40;102871;-40
2021/06/20 01:28:10;;;;;;;4.25;1.40;;;20.30;99.90;;;19.11;91.47;100270.78;3519786;39;102503;-41
2021/06/20 01:30:46;;;;;;;3.63;1.13;;;20.30;99.90;;;18.96;91.35;100271.66;3520553;40;102839;-40
2021/06/20 01:33:15;;;;;;;5.03;1.25;;;20.20;99.90;;;18.95;92.07;100275.50;3520186;40;102389;-42
2021/06/20 01:35:43;;;;;;;2.20;1.08;;;20.10;99.90;;;18.96;91.49;100262.50;3519506;40;102344;-40
2021/06/20 01:38:11;;;;;;;3.42;1.25;;;20.10;99.90;;;18.92;90.97;100258.66;3520272;40;102303;-40
2021/06/20 01:40:39;;;;;;;5.65;1.38;;;20.10;99.90;;;18.93;91.13;100249.25;3519817;40;102413;-40
2021/06/20 01:43:07;;;;;;;2.25;1.20;;;20.10;99.90;;;18.97;91.60;100218.03;3519796;39;102515;-42
2021/06/20 01:45:37;;;;;;;2.70;1.63;;;20.10;99.90;;;19.01;91.62;100207.25;3519871;40;102450;-40
2021/06/20 01:48:07;;;;;;;4.40;1.60;;;20.10;99.90;;;19.06;90.96;100215.50;3520446;40;102357;-41
2021/06/20 01:50:35;;;;;;;5.07;1.27;;;20.20;99.90;;;19.03;91.34;100206.97;3520362;40;102303;-41
2021/06/20 01:53:15;;;;;;;3.58;1.73;;;20.20;99.90;;;19.01;91.82;100212.75;3519721;40;102216;-42
2021/06/20 01:55:46;;;;;;;2.38;1.42;;;20.20;99.90;;;18.97;92.41;100220.78;3519638;40;102311;-42
2021/06/20 01:58:19;;;;;;;2.58;1.20;;;20.10;99.90;;;18.99;91.69;100220.50;3519542;40;102407;-43
2021/06/20 02:00:50;;;;;;;4.32;1.67;;;20.10;99.90;;;18.97;92.20;100198.69;3520096;40;104232;-42
2021/06/20 02:03:23;;;;;;;4.10;1.60;;;20.10;99.90;;;18.96;91.99;100213.59;3520165;39;102404;-40
2021/06/20 02:05:52;;;;;;;5.68;1.65;;;20.10;99.90;;;19.02;91.71;100221.91;3520127;40;102191;-39
2021/06/20 02:08:20;;;;;;;3.65;1.50;;;20.10;99.90;;;19.02;91.72;100216.38;3519544;40;102447;-40
2021/06/20 02:10:49;;;;;;;4.97;1.90;;;20.10;99.90;;;18.97;92.34;100217.19;3520006;40;102735;-41
2021/06/20 02:13:23;;;;;;;6.43;2.00;;;20.10;99.90;;;18.96;92.68;100232.13;3519358;40;102509;-41
2021/06/20 02:15:51;;;;;;;4.28;1.80;;;20.10;99.90;;;18.94;92.74;100229.63;3519338;40;102347;-40
2021/06/20 02:18:19;;;;;;;5.90;1.60;;;20.10;99.90;;;18.98;93.20;100232.69;3519734;40;102246;-43
2021/06/20 02:20:47;;;;;;;4.90;2.00;;;20.10;99.90;;;19.01;93.31;100236.81;3520088;40;102245;-42
2021/06/20 02:23:14;;;;;;;;;;;20.10;99.90;;;18.97;92.84;100250.34;3520142;39;102436;-41
2021/06/20 02:25:42;;;;;;;6.38;2.15;;;20.10;99.90;;;19.02;93.57;100269.69;3519685;40;102233;-40
2021/06/20 02:28:10;;;;;;;;;;;20.10;99.90;;;19.01;93.44;100267.22;3520218;40;102563;-41
2021/06/20 02:30:37;;;;;;;4.78;1.92;;;20.10;99.90;;;19.03;92.97;100299.00;3519834;40;103184;-40
2021/06/20 02:33:05;;;;;;;5.13;2.08;;;20.10;99.90;;;19.05;91.82;100315.31;3519745;39;102512;-40
2021/06/20 02:35:32;;;;;;;4.13;1.83;;;20.20;99.90;;;19.04;92.34;100333.81;3519790;40;102450;-40
2021/06/20 02:38:00;;;;;;;5.43;1.95;;;20.10;99.90;;;18.98;92.60;100332.19;3519970;40;102365;-40
2021/06/20 02:40:27;;;;;;;6.40;2.15;;;20.10;99.90;;;18.96;93.16;100348.19;3519526;39;103446;-40
2021/06/20 02:42:55;;;;;;;4.82;1.70;;;20.10;99.90;;;19.01;93.00;100339.09;3519894;39;102379;-42
2021/06/20 02:45:23;;;;;;;6.60;2.55;;;20.10;99.90;;;18.96;92.92;100331.59;3519562;40;102198;-42
2021/06/20 02:47:51;;;;;;;6.72;2.22;;;20.10;99.90;;;18.94;93.06;100333.84;3520292;40;102079;-40
2021/06/20 02:50:19;;;;;;;5.32;2.42;;;20.10;99.90;;;18.89;93.45;100342.94;3519662;40;102738;-41
2021/06/20 02:52:47;;;;;;;5.82;2.40;;;20.10;99.90;;;18.86;93.86;100338.00;3519904;40;102333;-40
2021/06/20 02:55:15;;;;;;;6.45;2.63;;;20.00;99.90;;;18.78;93.89;100350.44;3519398;40;102213;-41
2021/06/20 02:57:43;;;;;;;7.35;2.92;;;20.00;99.90;;;18.89;93.85;100355.97;3519615;40;102502;-41
2021/06/20 03:00:12;;;;;;;6.70;2.80;;;20.00;99.90;;;18.93;93.90;100360.63;3519764;40;102398;-40
2021/06/20 03:02:39;;;;;;;4.40;2.33;;;20.10;99.90;;;19.03;93.97;100373.63;3519951;39;102555;-41
2021/06/20 03:05:08;;;;;;;7.80;2.78;;;20.10;99.90;;;19.05;93.59;100378.88;3519525;40;103224;-41
2021/06/20 03:07:36;;;;;;;6.90;2.67;;;20.10;99.90;;;19.09;93.31;100383.56;3519852;39;103104;-42
2021/06/20 03:10:04;;;;;;;7.70;2.60;;;20.20;99.90;;;19.14;93.11;100392.97;3519686;40;103158;-40
2021/06/20 03:12:32;;;;;;;6.18;2.42;;;20.20;99.90;;;19.18;92.79;100389.34;3519541;40;102336;-42
2021/06/20 03:15:00;;;;;;;5.68;2.38;;;20.30;99.90;;;19.22;92.37;100395.16;3519012;40;102138;-42
2021/06/20 03:17:28;;;;;;;4.85;2.40;;;20.30;99.90;;;19.28;92.55;100409.78;3519531;40;102350;-41
2021/06/20 03:19:56;;;;;;;5.47;2.80;;;20.30;99.90;;;19.26;92.44;100408.13;3519764;40;102205;-40
2021/06/20 03:22:23;;;;;;;6.60;2.70;;;20.40;99.90;;;19.27;92.69;100414.47;3519308;39;102084;-42
2021/06/20 03:24:52;;;;;;;5.20;2.83;;;20.40;99.90;;;19.28;92.27;100407.03;3519274;40;102350;-40
2021/06/20 03:27:20;;;;;;;5.38;3.03;;;20.40;99.90;;;19.29;91.98;100417.78;3519107;40;102299;-41
2021/06/20 03:29:49;;;;;;;10.65;3.03;;;20.40;99.90;;;19.32;91.98;100413.66;3519559;40;104246;-40
2021/06/20 03:32:19;;;;;;;3.92;2.55;;;20.40;99.90;;;19.28;92.10;100410.59;3519722;40;102563;-40
2021/06/20 03:34:48;;;;;;;6.25;2.58;;;20.40;99.90;;;19.27;91.55;100422.78;3518751;40;102512;-43
2021/06/20 03:37:16;;;;;;;4.70;2.72;;;20.40;99.90;;;19.30;91.19;100418.63;3519353;40;102405;-40
2021/06/20 03:39:44;;;;;;;5.35;3.10;;;20.40;99.90;;;19.31;90.37;100414.75;3519628;40;102214;-40
2021/06/20 03:42:11;;;;;;;6.30;2.72;;;20.40;99.90;;;19.23;90.55;100403.19;3519304;40;102392;-41
2021/06/20 03:44:41;;;;;;;5.85;2.97;;;20.40;99.90;;;19.30;90.72;100410.34;3519540;40;102162;-42
2021/06/20 03:47:09;;;;;;;5.07;2.70;;;20.40;99.90;;;19.31;90.54;100425.81;3518943;39;102330;-41
2021/06/20 03:49:37;;;;;;;4.65;2.55;;;20.40;99.90;;;19.27;90.72;100414.47;3518040;40;102338;-40
2021/06/20 03:52:04;;;;;;;5.18;2.58;;;20.40;99.90;;;19.21;91.13;100421.94;3519684;39;103012;-41
2021/06/20 03:54:32;;;;;;;;;;;20.30;99.90;;;19.07;90.90;100398.78;3519858;39;102300;-40
2021/06/20 03:56:59;;;;;;;6.30;2.72;;;20.30;99.90;;;19.16;89.83;100418.41;3519329;40;102377;-40
2021/06/20 03:59:29;;;;;;;3.80;2.08;;;20.30;99.90;;;19.17;90.02;100425.59;3518964;39;102378;-42
2021/06/20 04:01:56;;;;;;;3.38;1.98;;;20.30;99.90;;;19.10;88.92;100435.00;3519138;40;102343;-41
2021/06/20 04:04:24;;;;;;;3.88;2.00;;;20.30;99.90;;;19.08;88.57;100428.09;3519572;40;103396;-41
2021/06/20 04:06:51;;;;;;;4.40;2.20;;;20.20;99.90;;;19.06;88.06;100427.53;3519477;40;102223;-40
2021/06/20 04:09:19;;;;;;;6.32;2.40;;;20.20;99.90;;;18.99;88.59;100424.25;3519335;40;103244;-41
2021/06/20 04:11:47;;;;;;;4.60;2.58;;;20.10;99.90;;;18.91;88.52;100429.16;3517980;40;102574;-41
2021/06/20 04:14:16;;;;;;;3.42;1.85;;;20.10;99.90;;;18.90;89.03;100437.75;3518929;40;102416;-44
2021/06/20 04:16:43;;;;;;;3.33;1.60;;;20.00;99.90;;;18.91;87.11;100433.88;3519032;40;102392;-40
2021/06/20 04:19:11;;;;;;;;;;;20.00;99.90;;;18.87;87.70;100441.91;3519852;40;102313;-40
2021/06/20 04:21:39;;;;;;;5.38;1.98;;;20.00;99.90;;;18.83;87.46;100444.41;3519705;40;102600;-40
2021/06/20 04:24:07;;;;;;;4.78;2.08;;;20.00;99.90;;;18.85;87.51;100444.09;3518499;40;102888;-40
2021/06/20 04:26:35;;;;;;;4.97;1.70;;;20.00;99.90;;;18.93;87.28;100437.19;3519051;40;103481;-42
2021/06/20 04:29:02;;;;;;;5.80;2.10;;;20.00;99.90;;;18.97;86.92;100436.38;3518831;40;102440;-42
2021/06/20 04:31:30;;;;;;;4.18;1.92;;;20.10;99.90;;;19.07;86.51;100438.28;3519113;40;102359;-40
2021/06/20 04:33:58;;;;;;;4.13;2.20;;;20.10;99.90;;;19.14;86.05;100453.78;3518604;40;104175;-41
2021/06/20 04:36:25;;;;;;;4.75;1.90;;;20.20;99.90;;;19.20;85.70;100447.13;3518974;40;102276;-41
2021/06/20 04:38:53;;;;;;;3.55;1.63;;;20.20;99.90;;;19.25;85.19;100452.66;3518860;40;104320;-40
2021/06/20 04:41:22;;;;;;;4.35;1.80;;;20.30;99.90;;;19.25;84.52;100450.72;3519872;40;102296;-41
2021/06/20 04:46:21;;;;;;;;;;;20.30;99.90;;;19.13;83.26;100460.44;3520924;40;103401;-41
2021/06/20 04:49:04;;;;;;;3.28;1.60;;;20.20;99.90;;;19.14;84.37;100462.09;3520798;39;102738;-40
2021/06/20 04:51:38;;;;;;;4.97;1.88;;;20.20;99.90;;;19.20;84.16;100463.72;3520193;40;103277;-42
2021/06/20 04:54:12;;;;;;;3.58;1.90;;;20.30;99.90;;;19.19;83.89;100468.41;3520228;40;103271;-40
2021/06/20 04:56:43;;;;;;;3.70;2.00;;;20.20;99.90;;;19.20;83.37;100469.25;3519919;40;102427;-40
2021/06/20 04:59:10;;;;;;;6.07;2.08;;;20.30;99.90;;;19.37;84.09;100475.31;3520237;40;102308;-41
2021/06/20 05:01:39;;;;;;;4.80;1.98;;;20.40;99.90;;;19.54;82.78;100480.53;3520000;40;102339;-41
2021/06/20 05:04:08;;;;;;;5.07;1.77;;;20.50;99.90;;;19.65;83.35;100477.72;3520167;40;102260;-41
2021/06/20 05:06:36;;;;;;;3.58;1.70;;;20.60;99.90;;;19.64;82.14;100487.97;3520714;40;102160;-40
2021/06/20 05:09:05;;;;;;;4.38;1.60;;;20.60;99.90;;;19.81;81.54;100490.38;3520193;39;102339;-41
2021/06/20 05:11:33;;;;;;;2.53;1.42;;;20.70;99.90;;;20.11;81.07;100499.69;3520103;40;102201;-41
2021/06/20 05:14:00;;;;;;;2.97;1.55;;;21.00;99.90;;;20.21;79.43;100490.50;3520435;39;102277;-41
2021/06/20 05:16:28;;;;;;;;;;;21.10;99.90;;;20.29;79.05;100497.38;3520989;39;102503;-40
2021/06/20 05:18:55;;;;;;;3.90;1.50;;;21.20;99.90;;;20.26;76.66;100498.78;3520034;40;104410;-41
2021/06/20 05:21:23;;;;;;;5.68;1.58;;;21.20;99.90;;;20.31;77.11;100502.63;3520586;39;103365;-42
2021/06/20 05:23:50;;;;;;;3.45;1.73;;;21.30;99.90;;;20.24;78.40;100498.22;3519214;40;102177;-42
2021/06/20 05:26:18;;;;;;;4.55;1.60;;;21.30;99.90;;;20.30;77.78;100504.56;3519917;40;102576;-43
2021/06/20 05:28:45;;;;;;;3.20;1.70;;;21.30;99.90;;;20.26;77.48;100507.06;3519993;40;102422;-41
2021/06/20 05:31:13;;;;;;;5.95;1.77;;;21.30;99.90;;;20.23;77.64;100513.19;3519783;40;102162;-40
2021/06/20 05:33:40;;;;;;;4.07;1.90;;;21.20;99.90;;;20.30;77.64;100517.59;3519689;39;102164;-41
2021/06/20 05:36:08;;;;;;;4.47;1.92;;;21.30;99.90;;;20.32;76.54;100520.88;3519931;39;102521;-40
2021/06/20 05:38:35;;;;;;;3.78;1.70;;;21.30;99.90;;;20.40;75.70;100506.44;3519802;40;103284;-40
2021/06/20 05:41:03;;;;;;;2.85;1.73;;;21.40;99.90;;;20.64;75.82;100517.66;3519855;39;102402;-40
2021/06/20 05:43:31;;;;;;;3.95;1.83;;;21.50;99.90;;;20.69;74.80;100512.06;3520402;40;102179;-40
2021/06/20 05:45:58;;;;;;;;;;;21.60;99.90;;;20.66;74.36;100520.13;3521108;39;102311;-40
2021/06/20 05:48:25;;;;;;;3.63;1.80;;;21.60;99.90;;;20.64;74.23;100522.34;3520252;40;102312;-40
2021/06/20 05:50:53;;;;;;;3.05;1.85;;;21.60;99.90;;;20.70;74.01;100510.94;3519703;40;102512;-40
2021/06/20 05:53:21;;;;;;;3.85;1.88;;;21.70;99.90;;;20.87;75.44;100522.78;3520013;40;102338;-40
2021/06/20 05:55:48;;;;;;;3.70;1.85;;;21.80;99.90;;;21.01;76.13;100521.00;3519704;39;102383;-40
2021/06/20 05:58:15;;;;;;;3.55;2.00;;;21.90;99.90;;;20.98;73.44;100516.03;3520043;40;103159;-41
2021/06/20 06:00:43;;;;;;;6.47;1.85;;;21.90;99.90;;;20.88;72.33;100522.50;3520211;40;102545;-42
2021/06/20 06:03:11;;;;;;;5.43;1.83;;;21.90;99.90;;;21.03;73.79;100524.31;3520119;39;102142;-40
2021/06/20 06:05:38;;;;;;;4.75;1.92;;;22.00;99.90;;;21.42;71.38;100509.50;3520041;40;103321;-42
2021/06/20 06:08:05;;;;;;;2.92;1.90;;;22.20;99.90;;;21.62;71.04;100523.47;3519861;40;102334;-40
2021/06/20 06:10:33;;;;;;;3.13;1.95;;;22.40;99.90;;;21.53;70.30;100523.28;3518818;40;102519;-41
2021/06/20 06:13:01;;;;;;;3.72;1.85;;;22.50;99.90;;;21.50;70.10;100532.19;3519667;40;102904;-40
2021/06/20 06:15:29;;;;;;;;;;;22.50;99.90;;;21.41;71.42;100534.78;3520634;40;102386;-41
2021/06/20 06:17:57;;;;;;;3.35;1.75;;;22.40;99.90;;;21.10;70.05;100527.56;3520235;39;102701;-42
2021/06/20 06:20:26;;;;;;;4.07;1.65;;;22.20;99.90;;;21.03;71.92;100527.06;3520306;39;102102;-39
2021/06/20 06:22:55;;;;;;;3.95;1.90;;;22.10;99.90;;;20.96;71.37;100529.38;3520114;39;102414;-39
2021/06/20 06:25:24;;;;;;;2.65;1.77;;;22.10;99.90;;;20.88;73.20;100527.19;3519835;40;102394;-40
2021/06/20 06:27:52;;;;;;;3.90;1.70;;;22.00;99.90;;;20.95;70.92;100539.63;3519471;40;103749;-39
2021/06/20 06:30:22;;;;;;;4.15;2.03;;;22.00;99.90;;;21.12;70.84;100541.16;3519844;40;102738;-41
2021/06/20 06:32:50;;;;;;;2.97;1.80;;;22.10;99.90;;;21.09;70.39;100544.50;3519498;40;103684;-39
2021/06/20 06:35:17;;;;;;;;;;;22.10;99.90;;;21.20;70.34;100542.44;3652264;22;103815;-42
2021/06/20 06:37:46;;;;;;;3.60;1.67;;;22.20;99.90;;;21.27;72.45;100538.22;3520050;39;102280;-43
2021/06/20 06:40:13;;;;;;;3.65;1.90;;;22.20;99.90;;;21.20;71.15;100540.50;3519939;40;102488;-46
2021/06/20 06:42:42;;;;;;;3.38;1.85;;;22.20;99.90;;;21.30;71.17;100542.38;3520337;40;103212;-41
2021/06/20 06:45:11;;;;;;;3.58;1.63;;;22.20;99.90;;;21.40;71.11;100547.81;3519714;40;102348;-42
2021/06/20 06:47:38;;;;;;;4.47;1.85;;;22.30;99.90;;;21.45;70.39;100546.09;3527676;39;102666;-41
2021/06/20 06:50:07;;;;;;;3.47;2.00;;;22.40;99.90;;;21.46;68.16;100547.75;3520104;40;102410;-43
2021/06/20 06:52:36;;;;;;;2.45;1.60;;;22.40;99.90;;;21.46;67.70;100537.50;3520150;40;103215;-41
2021/06/20 06:55:05;;;;;;;3.00;1.80;;;22.40;99.90;;;21.57;67.38;100532.66;3519729;40;102167;-41
2021/06/20 06:57:34;;;;;;;3.95;1.90;;;22.50;99.90;;;21.52;66.48;100543.84;3519819;39;102399;-41
2021/06/20 07:00:04;;;;;;;3.22;1.83;;;22.50;99.90;;;21.55;66.05;100544.03;3520364;40;102255;-41
2021/06/20 07:02:32;;;;;;;5.50;1.98;;;22.50;99.90;;;21.60;66.93;100545.13;3519911;39;102243;-41
2021/06/20 07:05:00;;;;;;;2.80;1.80;;;22.60;99.90;;;21.70;66.08;100534.75;3519450;39;102507;-41
2021/06/20 07:07:27;;;;;;;;;;;22.70;99.90;;;21.63;65.07;100537.03;3520341;40;104357;-41
2021/06/20 07:09:59;;;;;;;4.00;1.70;;;22.60;99.90;;;21.77;64.36;100530.81;3520031;39;102334;-42
2021/06/20 07:12:29;;;;;;;2.50;1.50;;;22.70;99.90;;;22.06;67.08;100525.16;3519958;40;102209;-42
2021/06/20 07:15:05;;;;;;;3.47;1.65;;;22.90;99.90;;;22.33;64.79;100534.00;3520042;40;102240;-42
2021/06/20 07:17:34;;;;;;;2.30;1.50;;;23.10;99.90;;;22.50;61.16;100534.31;3520044;40;102269;-41
2021/06/20 07:20:07;;;;;;;2.58;1.35;;;23.30;99.90;;;22.35;61.25;100545.66;3519984;40;102228;-41
2021/06/20 07:22:38;;;;;;;2.97;1.38;;;23.30;99.90;;;22.31;62.21;100553.75;3519778;40;102420;-41
2021/06/20 07:25:06;;;;;;;3.20;1.50;;;23.30;99.90;;;22.12;61.78;100556.50;3520216;40;102481;-42
2021/06/20 07:27:35;;;;;;;2.90;1.73;;;23.20;99.90;;;22.51;62.73;100549.06;3519742;40;102331;-44
2021/06/20 07:30:13;;;;;;;3.75;1.52;;;23.30;99.90;;;22.98;61.49;100560.28;3518659;40;102533;-41
2021/06/20 07:32:43;;;;;;;3.33;1.52;;;23.60;99.90;;;23.27;61.38;100546.22;3519755;40;102367;-43
2021/06/20 07:35:11;;;;;;;2.03;1.20;;;23.90;99.90;;;23.46;59.80;100538.91;3519249;40;102411;-41
2021/06/20 07:37:44;;;;;;;2.53;1.70;;;24.20;99.90;;;23.54;59.56;100558.53;3519812;39;102220;-42
2021/06/20 07:40:14;;;;;;;2.50;1.50;;;24.30;99.90;;;23.68;60.77;100555.75;3520233;40;102583;-41
2021/06/20 07:42:44;;;;;;;1.73;1.30;;;24.50;99.90;;;23.67;60.54;100558.84;3519712;40;103358;-41
2021/06/20 07:45:13;;;;;;;3.10;1.58;;;24.50;99.90;;;23.65;59.06;100559.16;3519702;40;102672;-41
2021/06/20 07:47:42;;;;;;;4.43;1.30;;;24.60;99.90;;;23.16;58.41;100563.34;3519901;40;102315;-43
2021/06/20 07:50:13;;;;;;;2.17;1.20;;;24.30;99.90;;;22.84;58.22;100561.06;3519914;39;102254;-41
2021/06/20 07:52:41;;;;;;;3.60;1.33;;;24.00;99.90;;;22.82;59.93;100554.16;3519737;39;103329;-42
2021/06/20 07:55:10;;;;;;;2.55;1.50;;;23.80;99.90;;;23.15;59.15;100548.59;3519801;40;102291;-42
2021/06/20 07:57:38;;;;;;;5.50;1.70;;;24.00;99.90;;;23.33;59.47;100560.84;3519663;40;102294;-42
2021/06/20 08:00:11;;;;;;;2.05;1.27;;;24.10;99.90;;;23.26;57.74;100563.19;3519636;40;102365;-44
2021/06/20 08:02:42;;;;;;;3.40;1.25;;;24.10;99.90;;;23.34;58.69;100570.88;3519906;40;102241;-42
2021/06/20 08:05:10;;;;;;;2.22;1.17;;;24.20;99.90;;;23.29;54.19;100568.16;3519878;40;102520;-41
2021/06/20 08:07:38;;;;;;;2.03;1.27;;;24.20;99.90;;;23.72;55.92;100580.19;3519864;40;102278;-42
2021/06/20 08:10:07;;;;;;;2.70;1.35;;;24.40;99.90;;;24.16;58.64;100578.81;3519611;40;102361;-43
2021/06/20 08:12:35;;;;;;;3.10;1.20;;;24.70;99.90;;;24.42;55.86;100575.47;3519239;40;102343;-41
2021/06/20 08:15:04;;;;;;;5.38;1.30;;;25.00;99.90;;;24.15;53.90;100577.16;3520492;39;102489;-41
2021/06/20 08:17:31;;;;;;;2.13;1.20;;;25.00;99.90;;;23.84;56.52;100586.06;3520996;39;102214;-46
2021/06/20 08:19:59;;;;;;;2.40;1.20;;;24.80;99.90;;;24.01;55.49;100576.28;3520907;39;102337;-41
2021/06/20 08:22:26;;;;;;;2.75;1.00;;;24.80;99.90;;;23.88;52.94;100584.34;3521157;39;102913;-41
2021/06/20 08:24:54;;;;;;;1.75;1.27;;;24.80;99.90;;;23.58;54.17;100580.19;3520604;40;102520;-44
2021/06/20 08:27:21;;;;;;;4.25;1.17;;;24.70;99.90;;;23.65;54.14;100570.28;3521269;39;102375;-42
2021/06/20 08:29:52;;;;;;;1.80;1.10;;;24.60;99.90;;;23.51;54.07;100569.44;3521476;40;102391;-42
2021/06/20 08:32:22;;;;;;;3.47;1.52;;;24.50;99.90;;;23.37;54.92;100564.69;3520605;39;102141;-44
2021/06/20 08:34:51;;;;;;;3.35;1.70;;;24.40;99.90;;;23.51;54.49;100570.28;3520369;40;102262;-42
2021/06/20 08:37:18;;;;;;;3.72;1.63;;;24.40;99.90;;;23.58;54.96;100572.63;3520857;40;103300;-45
2021/06/20 08:39:46;;;;;;;;;;;24.50;99.90;;;23.48;55.54;100582.03;3521572;40;102392;-41
2021/06/20 08:42:13;;;;;;;8.90;4.25;;;24.40;99.90;;;23.32;55.76;100575.88;3521336;39;102853;-42
2021/06/20 08:44:41;;;;;;;4.18;1.90;;;24.30;99.90;;;23.61;55.81;100574.84;3520272;39;102290;-43
2021/06/20 08:47:08;;;;;;;;;;;24.40;99.90;;;24.00;55.93;100569.88;3521187;40;102221;-42
2021/06/20 08:49:36;;;;;;;2.83;1.40;;;24.70;99.90;;;24.34;54.55;100568.66;3520880;39;102273;-42
2021/06/20 08:52:04;;;;;;;2.55;1.38;;;24.90;99.90;;;24.65;51.83;100567.13;3520815;39;103201;-43
2021/06/20 08:54:32;;;;;;;2.50;1.10;;;25.30;99.90;;;24.88;52.69;100567.19;3520535;40;103053;-46
2021/06/20 08:57:02;;;;;;;2.42;1.02;;;25.50;99.90;;;24.98;49.03;100559.38;3520941;39;102799;-38
2021/06/20 08:59:29;;;;;;;2.17;1.17;;;25.70;99.90;;;25.10;52.18;100572.78;3520469;40;102347;-44
2021/06/20 09:01:57;;;;;;;2.33;1.05;;;25.80;99.90;;;24.65;51.38;100554.03;3520392;40;102283;-41
2021/06/20 09:04:35;;;;;;;3.72;1.10;;;25.70;99.90;;;24.35;50.77;100558.31;3520910;40;103381;-41
2021/06/20 09:07:05;;;;;;;1.52;1.10;;;25.40;99.90;;;24.68;52.37;100572.09;3520836;40;103190;-41
2021/06/20 09:09:36;;;;;;;2.75;1.10;;;25.50;99.90;;;24.64;51.70;100562.69;3520813;40;102260;-41
2021/06/20 09:12:14;;;;;;;3.47;0.98;;;25.50;99.90;;;24.62;50.85;100568.59;3520633;40;102273;-41
2021/06/20 09:14:48;;;;;;;2.28;1.08;;;25.50;99.90;;;24.93;53.21;100570.69;3520114;39;102895;-40
2021/06/20 09:17:29;;;;;;;2.92;1.05;;;25.60;99.90;;;24.96;48.52;100566.44;3520773;39;103403;-41
2021/06/20 09:20:03;;;;;;;3.58;1.10;;;25.80;98.90;;;25.39;46.30;100567.88;3520599;40;102472;-46
2021/06/20 09:22:32;;;;;;;2.78;1.30;;;26.00;97.30;;;25.30;46.42;100566.97;3520620;40;102264;-41
2021/06/20 09:25:14;;;;;;;2.53;1.60;;;26.10;97.10;;;25.30;47.76;100578.97;3520246;40;103412;-42
2021/06/20 09:27:55;;;;;;;3.85;1.20;;;26.10;97.60;;;25.31;48.93;100588.16;3520896;40;103120;-42
2021/06/20 09:30:25;;;;;;;2.40;1.30;;;26.10;98.30;;;25.31;47.34;100594.59;3521069;40;102381;-42
2021/06/20 09:33:03;;;;;;;3.38;1.40;;;26.20;96.80;;;25.35;44.36;100587.22;3520197;40;102313;-41
2021/06/20 09:35:52;;;;;;;1.85;1.20;;;26.20;94.50;;;25.42;44.48;100587.59;3520146;39;102549;-44
2021/06/20 09:38:40;;;;;;;2.60;1.13;;;26.30;94.60;;;25.90;48.37;100587.22;3527877;39;102322;-42
2021/06/20 09:41:14;;;;;;;1.77;0.93;;;26.50;97.00;;;25.91;44.83;100588.84;3520677;40;102537;-41
2021/06/20 09:43:53;;;;;;;5.53;1.10;;;;;;;26.13;44.21;100582.34;3520871;40;103350;-43
2021/06/20 09:46:22;;;;;;;2.03;0.90;;;;;;;26.07;43.43;100592.03;3520290;39;102521;-42
2021/06/20 09:48:50;;;;;;;1.55;0.90;;;;;;;26.12;45.87;100597.47;3520492;39;103225;-39
2021/06/20 09:51:26;;;;;;;1.77;1.00;;;;;;;26.19;43.86;100599.81;3520011;39;102606;-41
2021/06/20 09:53:54;;;;;;;0.95;0.80;;;;;;;26.32;44.22;100595.25;3520369;40;104134;-40
2021/06/20 09:56:30;;;;;;;1.10;0.77;;;;;;;26.35;42.20;100589.00;3520095;39;102396;-40
2021/06/20 09:59:06;;;;;;;1.77;0.90;;;;;;;26.09;41.19;100606.50;3520484;40;105167;-41
2021/06/20 10:01:38;;;;;;;1.77;0.77;;;;;;;25.74;42.62;100604.38;3520379;39;102465;-41
2021/06/20 10:04:05;;;;;;;2.42;0.90;;;26.60;93.90;;;25.23;42.90;100606.53;3520118;39;103391;-41
2021/06/20 10:06:33;;;;;;;;;;;26.50;87.60;;;25.18;42.80;100599.09;3521189;40;102328;-42
2021/06/20 10:09:00;;;;;;;1.73;0.93;;;26.20;88.90;;;25.64;46.50;100611.06;3520605;39;102347;-42
2021/06/20 10:11:28;;;;;;;2.22;0.95;;;26.40;93.30;;;25.94;43.96;100602.97;3520718;40;102420;-42
2021/06/20 10:13:55;;;;;;;;;;;26.60;91.20;;;26.30;42.04;100603.16;3520647;40;104238;-42
2021/06/20 10:16:30;;;;;;;1.77;1.08;;;;;;;26.31;40.35;100588.00;3520069;39;102509;-41
2021/06/20 10:19:03;;;;;;;1.88;0.98;;;;;;;26.15;40.66;100580.03;3520579;39;102873;-42
2021/06/20 10:21:40;;;;;;;1.48;0.93;;;;;;;26.20;42.09;100584.69;3520642;39;102360;-41
2021/06/20 10:24:19;;;;;;;1.23;0.85;;;;;;;26.13;41.64;100591.56;3520197;40;103256;-42